sensor_id;sensor_type;location;lat;lon;timestamp;temperature;humidity
2447;DHT22;26430;48.818;9.244;2024-01-27T00:00:36;9.00;99.90
2447;DHT22;26430;48.818;9.244;2024-01-27T00:03:02;8.90;99.90
2447;DHT22;26430;48.818;9.244;2024-01-27T00:05:28;8.80;99.90
2447;DHT22;26430;48.818;9.244;2024-01-27T00:07:53;8.90;99.90
2447;DHT22;26430;48.818;9.244;2024-01-27T00:10:19;9.10;99.90
2447;DHT22;26430;48.818;9.244;2024-01-27T00:12:44;8.80;99.90
2447;DHT22;26430;48.818;9.244;2024-01-27T00:15:10;9.00;99.90
2447;DHT22;26430;48.818;9.244;2024-01-27T00:17:36;8.70;99.90
2447;DHT22;26430;48.818;9.244;2024-01-27T00:20:02;8.70;99.90
2447;DHT22;26430;48.818;9.244;2024-01-27T00:22:28;8.70;99.90
2447;DHT22;26430;48.818;9.244;2024-01-27T00:24:53;8.70;99.90
2447;DHT22;26430;48.818;9.244;2024-01-27T00:27:19;8.80;99.90
2447;DHT22;26430;48.818;9.244;2024-01-27T00:29:45;8.60;99.90
2447;DHT22;26430;48.818;9.244;2024-01-27T00:32:10;8.60;99.90
2447;DHT22;26430;48.818;9.244;2024-01-27T00:34:36;8.60;99.90
2447;DHT22;26430;48.818;9.244;2024-01-27T00:37:01;8.60;99.90
2447;DHT22;26430;48.818;9.244;2024-01-27T00:39:27;8.80;99.90
2447;DHT22;26430;48.818;9.244;2024-01-27T00:41:52;8.60;99.90
2447;DHT22;26430;48.818;9.244;2024-01-27T00:44:20;8.70;99.90
2447;DHT22;26430;48.818;9.244;2024-01-27T00:46:45;8.60;99.90
2447;DHT22;26430;48.818;9.244;2024-01-27T00:49:11;8.50;99.90
2447;DHT22;26430;48.818;9.244;2024-01-27T00:51:36;8.60;99.90
2447;DHT22;26430;48.818;9.244;2024-01-27T00:54:02;8.30;99.90
2447;DHT22;26430;48.818;9.244;2024-01-27T00:56:27;8.20;99.90
2447;DHT22;26430;48.818;9.244;2024-01-27T00:58:53;8.30;99.90
2447;DHT22;26430;48.818;9.244;2024-01-27T01:01:19;8.40;99.90
2447;DHT22;26430;48.818;9.244;2024-01-27T01:03:44;8.40;99.90
2447;DHT22;26430;48.818;9.244;2024-01-27T01:06:11;8.40;99.90
2447;DHT22;26430;48.818;9.244;2024-01-27T01:08:36;8.20;99.90
2447;DHT22;26430;48.818;9.244;2024-01-27T01:11:02;8.30;99.90
2447;DHT22;26430;48.818;9.244;2024-01-27T01:13:27;8.40;99.90
2447;DHT22;26430;48.818;9.244;2024-01-27T01:15:53;8.40;99.90
2447;DHT22;26430;48.818;9.244;2024-01-27T01:18:19;8.40;99.90
2447;DHT22;26430;48.818;9.244;2024-01-27T01:20:44;8.30;99.90
2447;DHT22;26430;48.818;9.244;2024-01-27T01:23:10;8.40;99.90
2447;DHT22;26430;48.818;9.244;2024-01-27T01:25:35;8.30;99.90
2447;DHT22;26430;48.818;9.244;2024-01-27T01:28:01;8.30;99.90
2447;DHT22;26430;48.818;9.244;2024-01-27T01:30:26;8.30;99.90
2447;DHT22;26430;48.818;9.244;2024-01-27T01:32:52;8.40;99.90
2447;DHT22;26430;48.818;9.244;2024-01-27T01:35:18;8.40;99.90
2447;DHT22;26430;48.818;9.244;2024-01-27T01:37:43;8.10;99.90
2447;DHT22;26430;48.818;9.244;2024-01-27T01:40:09;8.00;99.90
2447;DHT22;26430;48.818;9.244;2024-01-27T01:42:35;8.20;99.90
2447;DHT22;26430;48.818;9.244;2024-01-27T01:45:01;8.00;99.90
2447;DHT22;26430;48.818;9.244;2024-01-27T01:47:26;8.10;99.90
2447;DHT22;26430;48.818;9.244;2024-01-27T01:49:52;8.00;99.90
2447;DHT22;26430;48.818;9.244;2024-01-27T01:52:18;8.10;99.90
2447;DHT22;26430;48.818;9.244;2024-01-27T01:54:48;8.20;99.90
2447;DHT22;26430;48.818;9.244;2024-01-27T01:57:14;8.30;99.90
2447;DHT22;26430;48.818;9.244;2024-01-27T01:59:40;8.50;99.90
2447;DHT22;26430;48.818;9.244;2024-01-27T02:02:07;8.50;99.90
2447;DHT22;26430;48.818;9.244;2024-01-27T02:04:43;8.20;99.90
2447;DHT22;26430;48.818;9.244;2024-01-27T02:07:09;8.20;99.90
2447;DHT22;26430;48.818;9.244;2024-01-27T02:09:34;8.20;99.90
2447;DHT22;26430;48.818;9.244;2024-01-27T02:12:01;8.10;99.90
2447;DHT22;26430;48.818;9.244;2024-01-27T02:14:27;8.00;99.90
2447;DHT22;26430;48.818;9.244;2024-01-27T02:16:56;8.00;99.90
2447;DHT22;26430;48.818;9.244;2024-01-27T02:19:22;8.10;99.90
2447;DHT22;26430;48.818;9.244;2024-01-27T02:21:47;7.90;99.90
2447;DHT22;26430;48.818;9.244;2024-01-27T02:24:13;7.80;99.90
2447;DHT22;26430;48.818;9.244;2024-01-27T02:26:38;7.90;99.90
2447;DHT22;26430;48.818;9.244;2024-01-27T02:29:04;8.00;99.90
2447;DHT22;26430;48.818;9.244;2024-01-27T02:31:29;7.80;99.90
2447;DHT22;26430;48.818;9.244;2024-01-27T02:33:55;7.90;99.90
2447;DHT22;26430;48.818;9.244;2024-01-27T02:36:21;8.10;99.90
2447;DHT22;26430;48.818;9.244;2024-01-27T02:38:46;8.00;99.90
2447;DHT22;26430;48.818;9.244;2024-01-27T02:41:12;8.00;99.90
2447;DHT22;26430;48.818;9.244;2024-01-27T02:43:38;8.30;99.90
2447;DHT22;26430;48.818;9.244;2024-01-27T02:46:09;8.30;99.90
2447;DHT22;26430;48.818;9.244;2024-01-27T02:48:35;8.30;99.90
2447;DHT22;26430;48.818;9.244;2024-01-27T02:51:04;8.20;99.90
2447;DHT22;26430;48.818;9.244;2024-01-27T02:53:29;8.30;99.90
2447;DHT22;26430;48.818;9.244;2024-01-27T02:55:56;8.30;99.90
2447;DHT22;26430;48.818;9.244;2024-01-27T02:58:21;8.10;99.90
2447;DHT22;26430;48.818;9.244;2024-01-27T03:00:47;8.00;99.90
2447;DHT22;26430;48.818;9.244;2024-01-27T03:03:13;8.10;99.90
2447;DHT22;26430;48.818;9.244;2024-01-27T03:05:38;8.20;99.90
2447;DHT22;26430;48.818;9.244;2024-01-27T03:08:05;8.20;99.90
2447;DHT22;26430;48.818;9.244;2024-01-27T03:10:30;8.20;99.90
2447;DHT22;26430;48.818;9.244;2024-01-27T03:12:56;8.20;99.90
2447;DHT22;26430;48.818;9.244;2024-01-27T03:15:22;8.20;99.90
2447;DHT22;26430;48.818;9.244;2024-01-27T03:17:47;8.00;99.90
2447;DHT22;26430;48.818;9.244;2024-01-27T03:20:13;8.00;99.90
2447;DHT22;26430;48.818;9.244;2024-01-27T03:22:39;7.90;99.90
2447;DHT22;26430;48.818;9.244;2024-01-27T03:25:06;7.90;99.90
2447;DHT22;26430;48.818;9.244;2024-01-27T03:27:32;7.80;99.90
2447;DHT22;26430;48.818;9.244;2024-01-27T03:30:00;7.80;99.90
2447;DHT22;26430;48.818;9.244;2024-01-27T03:32:30;7.70;99.90
2447;DHT22;26430;48.818;9.244;2024-01-27T03:34:59;7.40;99.90
2447;DHT22;26430;48.818;9.244;2024-01-27T03:37:25;7.60;99.90
2447;DHT22;26430;48.818;9.244;2024-01-27T03:39:50;7.60;99.90
2447;DHT22;26430;48.818;9.244;2024-01-27T03:42:16;7.50;99.90
2447;DHT22;26430;48.818;9.244;2024-01-27T03:44:41;7.50;99.90
2447;DHT22;26430;48.818;9.244;2024-01-27T03:47:07;7.60;99.90
2447;DHT22;26430;48.818;9.244;2024-01-27T03:49:32;7.80;99.90
2447;DHT22;26430;48.818;9.244;2024-01-27T03:51:58;7.90;99.90
2447;DHT22;26430;48.818;9.244;2024-01-27T03:54:23;8.00;99.90
2447;DHT22;26430;48.818;9.244;2024-01-27T03:56:49;7.90;99.90
2447;DHT22;26430;48.818;9.244;2024-01-27T03:59:14;7.50;99.90
2447;DHT22;26430;48.818;9.244;2024-01-27T04:01:40;7.70;99.90
2447;DHT22;26430;48.818;9.244;2024-01-27T04:04:06;7.80;99.90
2447;DHT22;26430;48.818;9.244;2024-01-27T04:06:38;7.70;99.90
2447;DHT22;26430;48.818;9.244;2024-01-27T04:09:04;7.60;99.90
2447;DHT22;26430;48.818;9.244;2024-01-27T04:11:30;7.60;99.90
2447;DHT22;26430;48.818;9.244;2024-01-27T04:13:55;7.50;99.90
2447;DHT22;26430;48.818;9.244;2024-01-27T04:16:21;7.60;99.90
2447;DHT22;26430;48.818;9.244;2024-01-27T04:18:46;7.50;99.90
2447;DHT22;26430;48.818;9.244;2024-01-27T04:21:12;7.40;99.90
2447;DHT22;26430;48.818;9.244;2024-01-27T04:23:38;7.50;99.90
2447;DHT22;26430;48.818;9.244;2024-01-27T04:26:03;7.50;99.90
2447;DHT22;26430;48.818;9.244;2024-01-27T04:28:31;7.60;99.90
2447;DHT22;26430;48.818;9.244;2024-01-27T04:30:57;7.40;99.90
2447;DHT22;26430;48.818;9.244;2024-01-27T04:33:22;7.20;99.90
2447;DHT22;26430;48.818;9.244;2024-01-27T04:35:48;7.20;99.90
2447;DHT22;26430;48.818;9.244;2024-01-27T04:38:14;7.30;99.90
2447;DHT22;26430;48.818;9.244;2024-01-27T04:40:39;7.30;99.90
2447;DHT22;26430;48.818;9.244;2024-01-27T04:43:05;7.30;99.90
2447;DHT22;26430;48.818;9.244;2024-01-27T04:45:31;7.00;99.90
2447;DHT22;26430;48.818;9.244;2024-01-27T04:47:56;7.10;99.90
2447;DHT22;26430;48.818;9.244;2024-01-27T04:50:22;7.10;99.90
2447;DHT22;26430;48.818;9.244;2024-01-27T04:52:47;7.00;99.90
2447;DHT22;26430;48.818;9.244;2024-01-27T04:55:13;7.10;99.90
2447;DHT22;26430;48.818;9.244;2024-01-27T04:57:38;7.20;99.90
2447;DHT22;26430;48.818;9.244;2024-01-27T05:00:04;7.00;99.90
2447;DHT22;26430;48.818;9.244;2024-01-27T05:02:41;7.00;99.90
2447;DHT22;26430;48.818;9.244;2024-01-27T05:05:07;7.20;99.90
2447;DHT22;26430;48.818;9.244;2024-01-27T05:07:33;7.40;99.90
2447;DHT22;26430;48.818;9.244;2024-01-27T05:09:59;7.40;99.90
2447;DHT22;26430;48.818;9.244;2024-01-27T05:12:24;7.60;99.90
2447;DHT22;26430;48.818;9.244;2024-01-27T05:14:50;7.50;99.90
2447;DHT22;26430;48.818;9.244;2024-01-27T05:17:15;7.40;99.90
2447;DHT22;26430;48.818;9.244;2024-01-27T05:19:41;7.40;99.90
2447;DHT22;26430;48.818;9.244;2024-01-27T05:22:06;7.50;99.90
2447;DHT22;26430;48.818;9.244;2024-01-27T05:24:32;7.40;99.90
2447;DHT22;26430;48.818;9.244;2024-01-27T05:26:58;7.50;99.90
2447;DHT22;26430;48.818;9.244;2024-01-27T05:29:26;7.40;99.90
2447;DHT22;26430;48.818;9.244;2024-01-27T05:31:51;7.20;99.90
2447;DHT22;26430;48.818;9.244;2024-01-27T05:34:17;7.20;99.90
2447;DHT22;26430;48.818;9.244;2024-01-27T05:36:42;7.10;99.90
2447;DHT22;26430;48.818;9.244;2024-01-27T05:39:08;7.20;99.90
2447;DHT22;26430;48.818;9.244;2024-01-27T05:41:34;7.10;99.90
2447;DHT22;26430;48.818;9.244;2024-01-27T05:43:59;7.20;99.90
2447;DHT22;26430;48.818;9.244;2024-01-27T05:46:25;7.30;99.90
2447;DHT22;26430;48.818;9.244;2024-01-27T05:48:51;7.10;99.90
2447;DHT22;26430;48.818;9.244;2024-01-27T05:51:19;7.10;99.90
2447;DHT22;26430;48.818;9.244;2024-01-27T05:53:45;7.00;99.90
2447;DHT22;26430;48.818;9.244;2024-01-27T05:56:12;6.90;99.90
2447;DHT22;26430;48.818;9.244;2024-01-27T05:58:38;6.70;99.90
2447;DHT22;26430;48.818;9.244;2024-01-27T06:01:03;6.80;99.90
2447;DHT22;26430;48.818;9.244;2024-01-27T06:03:29;6.70;99.90
2447;DHT22;26430;48.818;9.244;2024-01-27T06:05:56;6.80;99.90
2447;DHT22;26430;48.818;9.244;2024-01-27T06:08:22;6.80;99.90
2447;DHT22;26430;48.818;9.244;2024-01-27T06:10:47;6.80;99.90
2447;DHT22;26430;48.818;9.244;2024-01-27T06:13:13;6.90;99.90
2447;DHT22;26430;48.818;9.244;2024-01-27T06:15:38;6.70;99.90
2447;DHT22;26430;48.818;9.244;2024-01-27T06:18:04;6.70;99.90
2447;DHT22;26430;48.818;9.244;2024-01-27T06:20:30;6.50;99.90
2447;DHT22;26430;48.818;9.244;2024-01-27T06:22:55;6.60;99.90
2447;DHT22;26430;48.818;9.244;2024-01-27T06:25:21;6.50;99.90
2447;DHT22;26430;48.818;9.244;2024-01-27T06:27:47;6.30;99.90
2447;DHT22;26430;48.818;9.244;2024-01-27T06:30:13;6.50;99.90
2447;DHT22;26430;48.818;9.244;2024-01-27T06:32:39;6.60;99.90
2447;DHT22;26430;48.818;9.244;2024-01-27T06:35:05;6.60;99.90
2447;DHT22;26430;48.818;9.244;2024-01-27T06:37:31;6.50;99.90
2447;DHT22;26430;48.818;9.244;2024-01-27T06:39:56;6.50;99.90
2447;DHT22;26430;48.818;9.244;2024-01-27T06:42:22;6.50;99.90
2447;DHT22;26430;48.818;9.244;2024-01-27T06:44:47;6.40;99.90
2447;DHT22;26430;48.818;9.244;2024-01-27T06:47:13;6.20;99.90
2447;DHT22;26430;48.818;9.244;2024-01-27T06:49:39;6.00;99.90
2447;DHT22;26430;48.818;9.244;2024-01-27T06:52:05;6.40;99.90
2447;DHT22;26430;48.818;9.244;2024-01-27T06:54:30;6.60;99.90
2447;DHT22;26430;48.818;9.244;2024-01-27T06:56:56;6.50;99.90
2447;DHT22;26430;48.818;9.244;2024-01-27T06:59:21;6.40;99.90
2447;DHT22;26430;48.818;9.244;2024-01-27T07:01:47;6.30;99.90
2447;DHT22;26430;48.818;9.244;2024-01-27T07:04:16;6.30;99.90
2447;DHT22;26430;48.818;9.244;2024-01-27T07:06:43;6.30;99.90
2447;DHT22;26430;48.818;9.244;2024-01-27T07:09:08;6.30;99.90
2447;DHT22;26430;48.818;9.244;2024-01-27T07:11:37;6.30;99.90
2447;DHT22;26430;48.818;9.244;2024-01-27T07:14:06;6.30;99.90
2447;DHT22;26430;48.818;9.244;2024-01-27T07:16:34;6.40;99.90
2447;DHT22;26430;48.818;9.244;2024-01-27T07:19:00;6.40;99.90
2447;DHT22;26430;48.818;9.244;2024-01-27T07:21:26;6.30;99.90
2447;DHT22;26430;48.818;9.244;2024-01-27T07:23:52;6.20;99.90
2447;DHT22;26430;48.818;9.244;2024-01-27T07:26:19;6.30;99.90
2447;DHT22;26430;48.818;9.244;2024-01-27T07:28:44;6.00;99.90
2447;DHT22;26430;48.818;9.244;2024-01-27T07:31:10;6.00;99.90
2447;DHT22;26430;48.818;9.244;2024-01-27T07:33:36;6.00;99.90
2447;DHT22;26430;48.818;9.244;2024-01-27T07:36:04;6.30;99.90
2447;DHT22;26430;48.818;9.244;2024-01-27T07:38:29;6.20;99.90
2447;DHT22;26430;48.818;9.244;2024-01-27T07:40:55;6.10;99.90
2447;DHT22;26430;48.818;9.244;2024-01-27T07:43:21;6.20;99.90
2447;DHT22;26430;48.818;9.244;2024-01-27T07:45:46;6.10;99.90
2447;DHT22;26430;48.818;9.244;2024-01-27T07:48:12;6.10;99.90
2447;DHT22;26430;48.818;9.244;2024-01-27T07:50:37;6.30;99.90
2447;DHT22;26430;48.818;9.244;2024-01-27T07:53:03;6.10;99.90
2447;DHT22;26430;48.818;9.244;2024-01-27T07:55:29;6.20;99.90
2447;DHT22;26430;48.818;9.244;2024-01-27T07:57:54;6.20;99.90
2447;DHT22;26430;48.818;9.244;2024-01-27T08:00:20;6.30;99.90
2447;DHT22;26430;48.818;9.244;2024-01-27T08:02:45;6.20;99.90
2447;DHT22;26430;48.818;9.244;2024-01-27T08:05:11;6.30;99.90
2447;DHT22;26430;48.818;9.244;2024-01-27T08:07:37;6.40;99.90
2447;DHT22;26430;48.818;9.244;2024-01-27T08:10:02;6.50;99.90
2447;DHT22;26430;48.818;9.244;2024-01-27T08:12:30;6.20;99.90
2447;DHT22;26430;48.818;9.244;2024-01-27T08:14:55;6.20;99.90
2447;DHT22;26430;48.818;9.244;2024-01-27T08:17:21;6.20;99.90
2447;DHT22;26430;48.818;9.244;2024-01-27T08:19:46;6.30;99.90
2447;DHT22;26430;48.818;9.244;2024-01-27T08:22:12;6.30;99.90
2447;DHT22;26430;48.818;9.244;2024-01-27T08:24:37;6.40;99.90
2447;DHT22;26430;48.818;9.244;2024-01-27T08:27:03;6.40;99.90
2447;DHT22;26430;48.818;9.244;2024-01-27T08:29:29;6.30;99.90
2447;DHT22;26430;48.818;9.244;2024-01-27T08:31:54;6.40;99.90
2447;DHT22;26430;48.818;9.244;2024-01-27T08:34:20;6.60;99.90
2447;DHT22;26430;48.818;9.244;2024-01-27T08:36:45;6.60;99.90
2447;DHT22;26430;48.818;9.244;2024-01-27T08:39:11;6.60;99.90
2447;DHT22;26430;48.818;9.244;2024-01-27T08:41:37;6.50;99.90
2447;DHT22;26430;48.818;9.244;2024-01-27T08:44:03;6.90;99.90
2447;DHT22;26430;48.818;9.244;2024-01-27T08:46:29;6.80;99.90
2447;DHT22;26430;48.818;9.244;2024-01-27T08:48:55;7.00;99.90
2447;DHT22;26430;48.818;9.244;2024-01-27T08:51:20;7.00;99.90
2447;DHT22;26430;48.818;9.244;2024-01-27T08:53:46;7.00;99.90
2447;DHT22;26430;48.818;9.244;2024-01-27T08:56:15;6.90;99.90
2447;DHT22;26430;48.818;9.244;2024-01-27T08:58:42;7.00;99.90
2447;DHT22;26430;48.818;9.244;2024-01-27T09:01:09;7.10;99.90
2447;DHT22;26430;48.818;9.244;2024-01-27T09:03:35;7.30;99.90
2447;DHT22;26430;48.818;9.244;2024-01-27T09:06:01;7.30;99.90
2447;DHT22;26430;48.818;9.244;2024-01-27T09:08:26;7.50;99.90
2447;DHT22;26430;48.818;9.244;2024-01-27T09:10:52;7.60;99.90
2447;DHT22;26430;48.818;9.244;2024-01-27T09:13:17;7.70;99.90
2447;DHT22;26430;48.818;9.244;2024-01-27T09:15:43;7.80;99.90
2447;DHT22;26430;48.818;9.244;2024-01-27T09:18:08;7.80;99.90
2447;DHT22;26430;48.818;9.244;2024-01-27T09:20:34;7.90;99.90
2447;DHT22;26430;48.818;9.244;2024-01-27T09:22:59;7.90;99.90
2447;DHT22;26430;48.818;9.244;2024-01-27T09:25:25;7.90;99.90
2447;DHT22;26430;48.818;9.244;2024-01-27T09:27:53;8.00;99.90
2447;DHT22;26430;48.818;9.244;2024-01-27T09:30:18;7.90;99.90
2447;DHT22;26430;48.818;9.244;2024-01-27T09:32:44;8.00;99.90
2447;DHT22;26430;48.818;9.244;2024-01-27T09:35:10;8.00;99.90
2447;DHT22;26430;48.818;9.244;2024-01-27T09:37:35;8.10;99.90
2447;DHT22;26430;48.818;9.244;2024-01-27T09:40:01;8.30;99.90
2447;DHT22;26430;48.818;9.244;2024-01-27T09:42:28;8.50;99.90
2447;DHT22;26430;48.818;9.244;2024-01-27T09:44:56;8.60;99.90
2447;DHT22;26430;48.818;9.244;2024-01-27T09:47:23;8.70;99.90
2447;DHT22;26430;48.818;9.244;2024-01-27T09:49:49;8.70;99.90
2447;DHT22;26430;48.818;9.244;2024-01-27T09:52:15;8.90;99.90
2447;DHT22;26430;48.818;9.244;2024-01-27T09:54:41;9.00;99.90
2447;DHT22;26430;48.818;9.244;2024-01-27T09:57:08;9.10;99.90
2447;DHT22;26430;48.818;9.244;2024-01-27T09:59:35;9.10;99.90
2447;DHT22;26430;48.818;9.244;2024-01-27T10:02:02;9.20;99.90
2447;DHT22;26430;48.818;9.244;2024-01-27T10:04:29;9.30;99.90
2447;DHT22;26430;48.818;9.244;2024-01-27T10:06:56;9.30;99.90
2447;DHT22;26430;48.818;9.244;2024-01-27T10:09:23;9.40;99.90
2447;DHT22;26430;48.818;9.244;2024-01-27T10:11:49;9.50;99.90
2447;DHT22;26430;48.818;9.244;2024-01-27T10:14:15;9.50;99.90
2447;DHT22;26430;48.818;9.244;2024-01-27T10:16:42;9.50;99.90
2447;DHT22;26430;48.818;9.244;2024-01-27T10:19:15;9.60;99.90
2447;DHT22;26430;48.818;9.244;2024-01-27T10:21:47;9.60;99.90
2447;DHT22;26430;48.818;9.244;2024-01-27T10:24:13;9.60;99.90
2447;DHT22;26430;48.818;9.244;2024-01-27T10:26:39;9.70;99.90
2447;DHT22;26430;48.818;9.244;2024-01-27T10:29:04;9.80;99.90
2447;DHT22;26430;48.818;9.244;2024-01-27T10:31:33;9.80;99.90
2447;DHT22;26430;48.818;9.244;2024-01-27T10:33:59;9.90;99.90
2447;DHT22;26430;48.818;9.244;2024-01-27T10:36:27;9.90;99.90
2447;DHT22;26430;48.818;9.244;2024-01-27T10:39:14;9.90;99.90
2447;DHT22;26430;48.818;9.244;2024-01-27T10:41:40;10.00;99.90
2447;DHT22;26430;48.818;9.244;2024-01-27T10:44:11;10.00;99.90
2447;DHT22;26430;48.818;9.244;2024-01-27T10:46:39;10.10;99.90
2447;DHT22;26430;48.818;9.244;2024-01-27T10:49:06;10.10;99.90
2447;DHT22;26430;48.818;9.244;2024-01-27T10:51:34;10.20;99.90
2447;DHT22;26430;48.818;9.244;2024-01-27T10:54:03;10.20;99.90
2447;DHT22;26430;48.818;9.244;2024-01-27T10:56:32;10.30;99.90
2447;DHT22;26430;48.818;9.244;2024-01-27T10:59:01;10.40;99.90
2447;DHT22;26430;48.818;9.244;2024-01-27T11:01:31;10.50;99.90
2447;DHT22;26430;48.818;9.244;2024-01-27T11:03:57;10.50;99.90
2447;DHT22;26430;48.818;9.244;2024-01-27T11:06:28;10.60;99.90
2447;DHT22;26430;48.818;9.244;2024-01-27T11:08:55;10.60;99.90
2447;DHT22;26430;48.818;9.244;2024-01-27T11:11:21;10.60;99.90
2447;DHT22;26430;48.818;9.244;2024-01-27T11:13:47;10.60;99.90
2447;DHT22;26430;48.818;9.244;2024-01-27T11:16:18;10.70;99.90
2447;DHT22;26430;48.818;9.244;2024-01-27T11:18:44;10.80;99.90
2447;DHT22;26430;48.818;9.244;2024-01-27T11:21:16;10.90;99.90
2447;DHT22;26430;48.818;9.244;2024-01-27T11:23:42;10.90;99.90
2447;DHT22;26430;48.818;9.244;2024-01-27T11:26:10;11.00;99.90
2447;DHT22;26430;48.818;9.244;2024-01-27T11:28:38;11.10;99.90
2447;DHT22;26430;48.818;9.244;2024-01-27T11:31:04;11.10;99.90
2447;DHT22;26430;48.818;9.244;2024-01-27T11:33:30;11.20;99.90
2447;DHT22;26430;48.818;9.244;2024-01-27T11:36:06;11.20;99.90
2447;DHT22;26430;48.818;9.244;2024-01-27T11:38:32;11.20;99.90
2447;DHT22;26430;48.818;9.244;2024-01-27T11:41:01;11.20;99.90
2447;DHT22;26430;48.818;9.244;2024-01-27T11:43:27;11.20;99.90
2447;DHT22;26430;48.818;9.244;2024-01-27T11:48:22;11.20;99.90
2447;DHT22;26430;48.818;9.244;2024-01-27T11:50:47;11.30;99.90
2447;DHT22;26430;48.818;9.244;2024-01-27T11:53:13;11.40;99.90
2447;DHT22;26430;48.818;9.244;2024-01-27T11:55:38;11.30;99.90
2447;DHT22;26430;48.818;9.244;2024-01-27T11:58:04;11.40;99.90
2447;DHT22;26430;48.818;9.244;2024-01-27T12:00:30;11.40;99.90
2447;DHT22;26430;48.818;9.244;2024-01-27T12:02:56;11.50;99.90
2447;DHT22;26430;48.818;9.244;2024-01-27T12:05:22;11.50;99.90
2447;DHT22;26430;48.818;9.244;2024-01-27T12:07:47;11.60;99.90
2447;DHT22;26430;48.818;9.244;2024-01-27T12:10:13;11.60;99.90
2447;DHT22;26430;48.818;9.244;2024-01-27T12:12:39;11.70;99.90
2447;DHT22;26430;48.818;9.244;2024-01-27T12:15:05;11.70;99.90
2447;DHT22;26430;48.818;9.244;2024-01-27T12:17:31;11.70;99.90
2447;DHT22;26430;48.818;9.244;2024-01-27T12:19:56;11.80;99.90
2447;DHT22;26430;48.818;9.244;2024-01-27T12:22:26;11.80;99.90
2447;DHT22;26430;48.818;9.244;2024-01-27T12:24:53;11.80;99.90
2447;DHT22;26430;48.818;9.244;2024-01-27T12:27:20;11.80;99.90
2447;DHT22;26430;48.818;9.244;2024-01-27T12:29:49;11.70;99.90
2447;DHT22;26430;48.818;9.244;2024-01-27T12:32:16;11.80;99.90
2447;DHT22;26430;48.818;9.244;2024-01-27T12:34:42;11.80;99.90
2447;DHT22;26430;48.818;9.244;2024-01-27T12:37:10;11.90;99.90
2447;DHT22;26430;48.818;9.244;2024-01-27T12:39:36;11.90;99.90
2447;DHT22;26430;48.818;9.244;2024-01-27T12:42:02;11.90;99.90
2447;DHT22;26430;48.818;9.244;2024-01-27T12:44:28;11.90;99.90
2447;DHT22;26430;48.818;9.244;2024-01-27T12:46:53;11.80;99.90
2447;DHT22;26430;48.818;9.244;2024-01-27T12:49:19;11.90;99.90
2447;DHT22;26430;48.818;9.244;2024-01-27T12:51:45;11.90;99.90
2447;DHT22;26430;48.818;9.244;2024-01-27T12:54:12;12.00;99.90
2447;DHT22;26430;48.818;9.244;2024-01-27T12:56:38;11.90;99.90
2447;DHT22;26430;48.818;9.244;2024-01-27T12:59:03;11.90;99.90
2447;DHT22;26430;48.818;9.244;2024-01-27T13:01:31;12.00;99.90
2447;DHT22;26430;48.818;9.244;2024-01-27T13:03:56;12.00;99.90
2447;DHT22;26430;48.818;9.244;2024-01-27T13:06:22;12.00;99.90
2447;DHT22;26430;48.818;9.244;2024-01-27T13:08:48;12.00;99.90
2447;DHT22;26430;48.818;9.244;2024-01-27T13:11:14;11.90;99.90
2447;DHT22;26430;48.818;9.244;2024-01-27T13:13:40;11.90;99.90
2447;DHT22;26430;48.818;9.244;2024-01-27T13:16:06;11.90;99.90
2447;DHT22;26430;48.818;9.244;2024-01-27T13:18:32;11.90;99.90
2447;DHT22;26430;48.818;9.244;2024-01-27T13:20:58;11.90;99.90
2447;DHT22;26430;48.818;9.244;2024-01-27T13:23:23;11.90;99.90
2447;DHT22;26430;48.818;9.244;2024-01-27T13:25:49;11.90;99.90
2447;DHT22;26430;48.818;9.244;2024-01-27T13:28:14;11.90;99.90
2447;DHT22;26430;48.818;9.244;2024-01-27T13:30:40;12.00;99.90
2447;DHT22;26430;48.818;9.244;2024-01-27T13:33:07;11.90;99.90
2447;DHT22;26430;48.818;9.244;2024-01-27T13:35:32;11.90;99.90
2447;DHT22;26430;48.818;9.244;2024-01-27T13:37:58;11.80;99.90
2447;DHT22;26430;48.818;9.244;2024-01-27T13:40:23;11.90;99.90
2447;DHT22;26430;48.818;9.244;2024-01-27T13:42:49;11.90;99.90
2447;DHT22;26430;48.818;9.244;2024-01-27T13:45:15;11.90;99.90
2447;DHT22;26430;48.818;9.244;2024-01-27T13:47:40;11.80;99.90
2447;DHT22;26430;48.818;9.244;2024-01-27T13:50:06;11.90;99.90
2447;DHT22;26430;48.818;9.244;2024-01-27T13:52:32;11.90;99.90
2447;DHT22;26430;48.818;9.244;2024-01-27T13:54:58;11.80;99.90
2447;DHT22;26430;48.818;9.244;2024-01-27T13:57:23;11.90;99.90
2447;DHT22;26430;48.818;9.244;2024-01-27T13:59:49;11.80;99.90
2447;DHT22;26430;48.818;9.244;2024-01-27T14:02:15;11.90;99.90
2447;DHT22;26430;48.818;9.244;2024-01-27T14:04:40;11.90;99.90
2447;DHT22;26430;48.818;9.244;2024-01-27T14:07:06;11.80;99.90
2447;DHT22;26430;48.818;9.244;2024-01-27T14:09:34;11.80;99.90
2447;DHT22;26430;48.818;9.244;2024-01-27T14:11:59;11.80;99.90
2447;DHT22;26430;48.818;9.244;2024-01-27T14:14:26;11.70;99.90
2447;DHT22;26430;48.818;9.244;2024-01-27T14:16:52;11.70;99.90
2447;DHT22;26430;48.818;9.244;2024-01-27T14:19:17;11.70;99.90
2447;DHT22;26430;48.818;9.244;2024-01-27T14:21:43;11.60;99.90
2447;DHT22;26430;48.818;9.244;2024-01-27T14:24:08;11.60;99.90
2447;DHT22;26430;48.818;9.244;2024-01-27T14:26:34;11.70;99.90
2447;DHT22;26430;48.818;9.244;2024-01-27T14:29:00;11.60;99.90
2447;DHT22;26430;48.818;9.244;2024-01-27T14:31:26;11.60;99.90
2447;DHT22;26430;48.818;9.244;2024-01-27T14:33:51;11.60;99.90
2447;DHT22;26430;48.818;9.244;2024-01-27T14:36:17;11.60;99.90
2447;DHT22;26430;48.818;9.244;2024-01-27T14:38:43;11.60;99.90
2447;DHT22;26430;48.818;9.244;2024-01-27T14:41:09;11.60;99.90
2447;DHT22;26430;48.818;9.244;2024-01-27T14:43:37;11.60;99.90
2447;DHT22;26430;48.818;9.244;2024-01-27T14:46:04;11.60;99.90
2447;DHT22;26430;48.818;9.244;2024-01-27T14:48:29;11.50;98.80
2447;DHT22;26430;48.818;9.244;2024-01-27T14:50:55;11.50;99.30
2447;DHT22;26430;48.818;9.244;2024-01-27T14:53:27;11.50;99.60
2447;DHT22;26430;48.818;9.244;2024-01-27T14:55:53;11.40;98.80
2447;DHT22;26430;48.818;9.244;2024-01-27T14:58:19;11.40;99.40
2447;DHT22;26430;48.818;9.244;2024-01-27T15:00:44;11.40;99.90
2447;DHT22;26430;48.818;9.244;2024-01-27T15:03:10;11.40;99.90
2447;DHT22;26430;48.818;9.244;2024-01-27T15:05:37;11.30;99.90
2447;DHT22;26430;48.818;9.244;2024-01-27T15:08:06;11.30;99.90
2447;DHT22;26430;48.818;9.244;2024-01-27T15:10:31;11.30;99.90
2447;DHT22;26430;48.818;9.244;2024-01-27T15:12:57;11.30;99.90
2447;DHT22;26430;48.818;9.244;2024-01-27T15:15:23;11.30;99.90
2447;DHT22;26430;48.818;9.244;2024-01-27T15:17:49;11.30;99.90
2447;DHT22;26430;48.818;9.244;2024-01-27T15:20:15;11.30;99.90
2447;DHT22;26430;48.818;9.244;2024-01-27T15:22:41;11.20;99.90
2447;DHT22;26430;48.818;9.244;2024-01-27T15:25:07;11.20;99.90
2447;DHT22;26430;48.818;9.244;2024-01-27T15:27:33;11.10;99.90
2447;DHT22;26430;48.818;9.244;2024-01-27T15:29:59;11.20;99.90
2447;DHT22;26430;48.818;9.244;2024-01-27T15:32:25;11.10;99.90
2447;DHT22;26430;48.818;9.244;2024-01-27T15:34:52;11.10;99.90
2447;DHT22;26430;48.818;9.244;2024-01-27T15:37:18;11.10;99.90
2447;DHT22;26430;48.818;9.244;2024-01-27T15:39:44;11.10;99.90
2447;DHT22;26430;48.818;9.244;2024-01-27T15:42:10;11.00;99.90
2447;DHT22;26430;48.818;9.244;2024-01-27T15:44:35;11.00;99.90
2447;DHT22;26430;48.818;9.244;2024-01-27T15:47:01;11.00;99.90
2447;DHT22;26430;48.818;9.244;2024-01-27T15:49:27;10.90;99.90
2447;DHT22;26430;48.818;9.244;2024-01-27T15:51:53;11.00;99.90